Cooper Landing, AK (99572)

3:58 PM AKDT on March 28, 2017 (GMT -0800)
MFTSA2 | | Change Station

Elev 1357 ft 60.64 °N, 149.50 °W | Updated 3 minutes ago

Overcast
Overcast
30.0 °F
Feels Like 23 °F
N
7.0
Wind Variable Wind from SW
Gusts 11.0 mph

Today
High -- | Low -- °F
--% Chance of Precip.
Yesterday
High -- | Low -- °F
Precip. -- in
Pressure 29.45 in
Visibility 1.8 miles
Clouds Few 500 ft
Mostly Cloudy 1800 ft
Overcast 2400 ft
Windchill 23 °F
Dew Point 28 °F
Humidity 91%
Rainfall 0.22 in
Snow Depth Not available.
7:34 AM 8:35 PM
New Moon, 1% visible
METAR PAWD 282353Z AUTO 00000KT 1 3/4SM -SN BR FEW005 BKN018 OVC024 01/M01 A2945 RMK AO2 SLP973 P0000 60007 T00061006 10006 21017 53012 TSNO $
Pressure 29.45 in
Visibility 1.8 miles
Clouds Few 500 ft
Mostly Cloudy 1800 ft
Overcast 2400 ft
Windchill 23 °F
Dew Point 28 °F
Humidity 91%
Rainfall 0.22 in
Snow Depth Not available.
7:34 AM 8:35 PM
New Moon, 1% visible
METAR PAWD 282353Z AUTO 00000KT 1 3/4SM -SN BR FEW005 BKN018 OVC024 01/M01 A2945 RMK AO2 SLP973 P0000 60007 T00061006 10006 21017 53012 TSNO $

Get Severe Weather Alerts

Thanks for signing up!

Be on the lookout for a verification email in your inbox.

You'll start receiving the daily forecast at 8 AM.

×

10-Day Weather Forecast

Almanac

Astronomy

Mar. 28, 2017 Rise Set
Actual Time
Civil Twilight
Nautical Twilight
Astronomical Twilight
Moon
Length of Visible Light
Length of Day
Tomorrow will be .
, % of the Moon is Illuminated

Today's Extremes

State Highs State Lows

Community

WunderPhotos

Upload Photos

1,962,540 photos uploaded!

WunderBlog® & News

Nearby

Air Quality

  Air Quality AQ Index Pollutant
Not available.

Snow Depth

Station Depth Elevation

Earthquake Activity

City Distance Mag. Time & Date
Minimum magnitude displayed is 2.5.

Earthquake Activity

City Distance Mag. Time & Date
Minimum magnitude displayed is 2.5.

Coastal Water Temperatures

Place Temperature

Stations

Nearby Weather Stations

Station Location Temp. Windchill Dew Point Humidity Wind Precip. Elev Updated Type
                   

Watches & Warnings

There are currently no watches in effect.